Time;durP1;ratioP1;P1;durP2;ratioP2;P2;SDS_P1;SDS_P2;PMS_P1;PMS_P2;Temp;Humidity;BMP_temperature;BMP_pressure;BME280_temperature;BME280_humidity;BME280_pressure;Samples;Min_cycle;Max_cycle;Signal;HPM_P1;HPM_P2
2023/10/03 00:01:01;;;;;;;1999.90;999.90;;;19.40;99.90;;;;;;5048551;28;20029;-76
2023/10/03 00:03:27;;;;;;;1999.90;999.90;;;19.40;99.90;;;;;;5054620;28;20037;-73
2023/10/03 00:05:54;;;;;;;1999.90;999.90;;;19.40;99.90;;;;;;5054239;28;20024;-72
2023/10/03 00:08:20;;;;;;;1999.90;999.90;;;19.40;99.90;;;;;;5054669;28;20029;-76
2023/10/03 00:10:46;;;;;;;1999.90;999.90;;;19.40;99.90;;;;;;5054156;28;20025;-72
2023/10/03 00:13:12;;;;;;;1999.90;999.90;;;19.40;99.90;;;;;;5054557;28;20533;-75
2023/10/03 00:15:43;;;;;;;1999.90;999.90;;;19.50;99.90;;;;;;5054351;28;20558;-76
2023/10/03 00:18:10;;;;;;;1999.90;999.90;;;19.50;99.90;;;;;;5054341;28;20025;-72
2023/10/03 00:20:36;;;;;;;1999.90;999.90;;;19.50;99.90;;;;;;5054193;28;20123;-72
2023/10/03 00:23:02;;;;;;;1999.90;999.90;;;19.50;99.90;;;;;;5054083;28;20025;-73
2023/10/03 00:25:28;;;;;;;1999.90;999.90;;;19.50;99.90;;;;;;5053488;28;20045;-76
2023/10/03 00:27:56;;;;;;;1999.90;999.90;;;19.50;99.90;;;;;;5053810;28;20469;-76
2023/10/03 00:30:24;;;;;;;1999.90;999.90;;;19.50;99.90;;;;;;5054201;28;20028;-72
2023/10/03 00:32:54;;;;;;;1999.90;999.90;;;19.60;99.90;;;;;;5053551;28;20027;-73
2023/10/03 00:35:20;;;;;;;1999.90;999.90;;;19.60;99.90;;;;;;5053534;28;20021;-76
2023/10/03 00:37:49;;;;;;;1999.90;999.90;;;19.70;99.90;;;;;;5053008;28;20037;-76
2023/10/03 00:42:57;;;;;;;1999.90;999.90;;;19.70;99.90;;;;;;5054215;28;20064;-76
2023/10/03 00:45:26;;;;;;;1999.90;999.90;;;19.70;99.90;;;;;;5053762;28;20393;-73
2023/10/03 00:47:54;;;;;;;1999.90;999.90;;;19.70;99.90;;;;;;5053724;28;20024;-76
2023/10/03 00:50:24;;;;;;;1999.90;999.90;;;19.70;99.90;;;;;;5053732;28;20017;-77
2023/10/03 00:52:55;;;;;;;1999.90;999.90;;;19.70;99.90;;;;;;5045649;28;20029;-73
2023/10/03 00:55:32;;;;;;;1999.90;999.90;;;19.70;99.90;;;;;;5045259;28;20025;-72
2023/10/03 00:58:07;;;;;;;1999.90;999.90;;;19.70;99.90;;;;;;5053455;28;20021;-72
2023/10/03 01:00:41;;;;;;;1999.90;999.90;;;19.80;99.90;;;;;;5053369;28;20051;-76
2023/10/03 01:03:24;;;;;;;1999.90;999.90;;;19.80;99.90;;;;;;5053485;28;20063;-73
2023/10/03 01:05:53;;;;;;;1999.90;999.90;;;19.90;99.90;;;;;;5052622;28;20479;-76
2023/10/03 01:08:21;;;;;;;1999.90;999.90;;;19.90;99.90;;;;;;5051999;28;20070;-72
2023/10/03 01:10:46;;;;;;;1999.90;999.90;;;19.90;99.90;;;;;;5053277;28;20029;-72
2023/10/03 01:13:12;;;;;;;1999.90;999.90;;;20.00;99.90;;;;;;5053201;28;20043;-76
2023/10/03 01:15:39;;;;;;;1999.90;999.90;;;20.10;99.90;;;;;;5052862;28;20555;-76
2023/10/03 01:18:06;;;;;;;1999.90;999.90;;;20.10;99.90;;;;;;5052712;28;20044;-76
2023/10/03 01:20:40;;;;;;;1999.90;999.90;;;20.20;99.90;;;;;;5053252;28;20024;-76
2023/10/03 01:23:13;;;;;;;1999.90;999.90;;;20.20;99.90;;;;;;5052982;28;20033;-72
2023/10/03 01:25:42;;;;;;;1999.90;999.90;;;20.20;99.90;;;;;;5052586;28;20048;-76
2023/10/03 01:28:11;;;;;;;1999.90;999.90;;;20.30;99.90;;;;;;5053167;28;20032;-72
2023/10/03 01:30:37;;;;;;;1999.90;999.90;;;20.30;99.90;;;;;;5053013;28;20023;-73
2023/10/03 01:33:04;;;;;;;1999.90;999.90;;;20.30;99.90;;;;;;5052888;28;20029;-76
2023/10/03 01:35:30;;;;;;;1999.90;999.90;;;20.40;99.90;;;;;;5052901;28;20017;-72
2023/10/03 01:37:55;;;;;;;1999.90;999.90;;;20.40;99.90;;;;;;5052864;28;20087;-72
2023/10/03 01:40:21;;;;;;;1999.90;999.90;;;20.50;99.90;;;;;;5052832;28;20052;-76
2023/10/03 01:42:48;;;;;;;1999.90;999.90;;;20.50;99.90;;;;;;5052887;28;20380;-76
2023/10/03 01:45:25;;;;;;;1999.90;999.90;;;20.50;99.90;;;;;;5052777;28;20029;-76
2023/10/03 01:47:51;;;;;;;1999.90;999.90;;;20.50;99.90;;;;;;5052751;28;20063;-72
2023/10/03 01:50:21;;;;;;;1999.90;999.90;;;20.50;99.90;;;;;;5052563;28;20369;-76
2023/10/03 01:52:48;;;;;;;1999.90;999.90;;;20.50;99.90;;;;;;5045436;28;20056;-72
2023/10/03 01:55:17;;;;;;;1999.90;999.90;;;20.60;99.90;;;;;;5041437;28;20026;-76
2023/10/03 01:57:44;;;;;;;1999.90;999.90;;;20.60;99.90;;;;;;5032804;28;20022;-76
2023/10/03 02:00:25;;;;;;;1999.90;999.90;;;20.60;99.90;;;;;;5039498;28;20066;-72
2023/10/03 02:02:53;;;;;;;1999.90;999.90;;;20.60;99.90;;;;;;5052687;28;20021;-76
2023/10/03 02:05:24;;;;;;;1999.90;999.90;;;20.60;99.90;;;;;;5052524;28;20025;-72
2023/10/03 02:07:55;;;;;;;1999.90;999.90;;;20.70;99.90;;;;;;5052571;28;20476;-76
2023/10/03 02:10:21;;;;;;;1999.90;999.90;;;20.70;99.90;;;;;;5052473;28;20384;-72
2023/10/03 02:12:50;;;;;;;1999.90;999.90;;;20.60;99.90;;;;;;5052299;28;20025;-76
2023/10/03 02:15:24;;;;;;;1999.90;999.90;;;20.60;99.90;;;;;;5052582;28;20075;-72
2023/10/03 02:17:52;;;;;;;1999.90;999.90;;;20.50;99.90;;;;;;5052306;28;20033;-72
2023/10/03 02:20:21;;;;;;;1999.90;999.90;;;20.60;99.90;;;;;;5052807;28;20104;-76
2023/10/03 02:22:54;;;;;;;1999.90;999.90;;;20.50;99.90;;;;;;5052456;28;20063;-76
2023/10/03 02:25:30;;;;;;;1999.90;999.90;;;20.50;99.90;;;;;;5051688;28;20049;-76
2023/10/03 02:27:57;;;;;;;1999.90;999.90;;;20.50;99.90;;;;;;5052475;28;20549;-72
2023/10/03 02:30:25;;;;;;;1999.90;999.90;;;20.60;99.90;;;;;;5052568;28;20099;-72
2023/10/03 02:32:55;;;;;;;1999.90;999.90;;;20.60;99.90;;;;;;5050755;28;20476;-76
2023/10/03 02:35:24;;;;;;;1999.90;999.90;;;20.60;99.90;;;;;;5052283;28;20476;-73
2023/10/03 02:37:58;;;;;;;1999.90;999.90;;;20.70;99.90;;;;;;5052226;28;20036;-76
2023/10/03 02:40:28;;;;;;;1999.90;999.90;;;20.60;99.90;;;;;;5052300;28;20021;-73
2023/10/03 02:42:54;;;;;;;1999.90;999.90;;;20.70;99.90;;;;;;5052207;28;20106;-72
2023/10/03 02:45:25;;;;;;;1999.90;999.90;;;20.70;99.90;;;;;;5052144;28;20021;-73
2023/10/03 02:48:09;;;;;;;1999.90;999.90;;;20.70;99.90;;;;;;5052418;28;20029;-76
2023/10/03 02:50:34;;;;;;;1999.90;999.90;;;20.70;99.90;;;;;;5052019;28;20059;-76
2023/10/03 02:53:10;;;;;;;1999.90;999.90;;;20.60;99.90;;;;;;5044030;28;20464;-73
2023/10/03 02:55:36;;;;;;;1999.90;999.90;;;20.60;99.90;;;;;;5038474;28;20504;-73
2023/10/03 02:58:02;;;;;;;1999.90;999.90;;;20.60;99.90;;;;;;5032151;28;20028;-76
2023/10/03 03:00:27;;;;;;;1999.90;999.90;;;20.60;99.90;;;;;;5041944;28;20021;-72
2023/10/03 03:02:54;;;;;;;1999.90;999.90;;;20.60;99.90;;;;;;5055905;28;20029;-76
2023/10/03 03:05:22;;;;;;;1999.90;999.90;;;20.60;99.90;;;;;;5055604;28;20031;-72
2023/10/03 03:07:49;;;;;;;1999.90;999.90;;;20.60;99.90;;;;;;5055692;28;20024;-72
2023/10/03 03:10:17;;;;;;;1999.90;999.90;;;20.70;99.90;;;;;;5055537;28;20025;-76
2023/10/03 03:12:46;;;;;;;1999.90;999.90;;;20.70;99.90;;;;;;5055369;28;20068;-73
2023/10/03 03:15:23;;;;;;;1999.90;999.90;;;20.80;99.90;;;;;;5055422;28;20052;-76
2023/10/03 03:17:50;;;;;;;1999.90;999.90;;;20.70;99.90;;;;;;5055616;28;20028;-76
2023/10/03 03:20:21;;;;;;;1999.90;999.90;;;20.80;99.90;;;;;;5055448;28;20108;-72
2023/10/03 03:22:48;;;;;;;1999.90;999.90;;;20.80;99.90;;;;;;5055455;28;20052;-76
2023/10/03 03:25:24;;;;;;;1999.90;999.90;;;20.80;99.90;;;;;;5054527;28;20053;-76
2023/10/03 03:27:54;;;;;;;1999.90;999.90;;;20.80;99.90;;;;;;5055179;28;20025;-76
2023/10/03 03:32:53;;;;;;;1999.90;999.90;;;20.90;99.90;;;;;;5055383;28;20057;-72
2023/10/03 03:35:24;;;;;;;1999.90;999.90;;;20.90;99.90;;;;;;5055127;28;20043;-72
2023/10/03 03:37:55;;;;;;;1999.90;999.90;;;20.90;99.90;;;;;;5055159;28;20079;-72
2023/10/03 03:40:31;;;;;;;1999.90;999.90;;;20.90;99.90;;;;;;5049964;28;20021;-76
2023/10/03 03:42:59;;;;;;;1999.90;999.90;;;20.90;99.90;;;;;;5035082;28;20404;-76
2023/10/03 03:45:27;;;;;;;1999.90;999.90;;;20.80;99.90;;;;;;5038217;28;20017;-72
2023/10/03 03:47:54;;;;;;;1999.90;999.90;;;20.80;99.90;;;;;;5054744;28;20095;-72
2023/10/03 03:50:23;;;;;;;1999.90;999.90;;;20.80;99.90;;;;;;5054542;28;20504;-76
2023/10/03 03:52:49;;;;;;;1999.90;999.90;;;20.60;99.90;;;;;;5049726;28;20083;-72
2023/10/03 03:55:17;;;;;;;1999.90;999.90;;;20.40;99.90;;;;;;5045839;28;20112;-76
2023/10/03 03:57:45;;;;;;;1999.90;999.90;;;20.20;99.90;;;;;;5054848;28;20480;-72
2023/10/03 04:00:13;;;;;;;1999.90;999.90;;;20.10;99.90;;;;;;5053954;28;20396;-73
2023/10/03 04:02:39;;;;;;;1999.90;999.90;;;20.10;99.90;;;;;;5054478;28;20074;-76
2023/10/03 04:05:07;;;;;;;1999.90;999.90;;;20.00;99.90;;;;;;5054150;28;20509;-76
2023/10/03 04:07:34;;;;;;;1999.90;999.90;;;19.90;99.90;;;;;;5052365;28;20392;-76
2023/10/03 04:10:00;;;;;;;1999.90;999.90;;;19.90;99.90;;;;;;5045462;28;20144;-76
2023/10/03 04:12:26;;;;;;;1999.90;999.90;;;19.80;99.90;;;;;;5048531;28;20112;-72
2023/10/03 04:14:52;;;;;;;1999.90;999.90;;;19.80;99.90;;;;;;5054383;28;20513;-76
2023/10/03 04:17:18;;;;;;;1999.90;999.90;;;19.80;99.90;;;;;;5054273;28;20422;-76
2023/10/03 04:19:45;;;;;;;1999.90;999.90;;;19.70;99.90;;;;;;5054460;28;20033;-76
2023/10/03 04:22:11;;;;;;;1999.90;999.90;;;19.70;99.90;;;;;;5054184;28;20040;-76
2023/10/03 04:24:37;;;;;;;1999.90;999.90;;;19.70;99.90;;;;;;5054195;28;20041;-73
2023/10/03 04:27:07;;;;;;;1999.90;999.90;;;19.60;99.90;;;;;;5036849;28;20033;-73
2023/10/03 04:29:33;;;;;;;1999.90;999.90;;;19.70;99.90;;;;;;5034397;28;20039;-76
2023/10/03 04:31:59;;;;;;;1999.90;999.90;;;19.60;99.90;;;;;;5034470;28;20052;-75
2023/10/03 04:34:24;;;;;;;1999.90;999.90;;;19.60;99.90;;;;;;5034172;28;20057;-73
2023/10/03 04:36:50;;;;;;;1999.90;999.90;;;19.60;99.90;;;;;;5033940;28;20037;-73
2023/10/03 04:39:15;;;;;;;1999.90;999.90;;;19.60;99.90;;;;;;5034081;28;20477;-73
2023/10/03 04:41:43;;;;;;;1999.90;999.90;;;19.60;99.90;;;;;;5049832;28;20025;-76
2023/10/03 04:44:14;;;;;;;1999.90;999.90;;;19.60;99.90;;;;;;5054127;28;20491;-76
2023/10/03 04:46:40;;;;;;;1999.90;999.90;;;19.60;99.90;;;;;;5053619;28;20100;-73
2023/10/03 04:49:07;;;;;;;1999.90;999.90;;;19.50;99.90;;;;;;5053367;28;20112;-76
2023/10/03 04:51:33;;;;;;;1999.90;999.90;;;19.50;99.90;;;;;;5053036;28;20021;-75
2023/10/03 04:53:58;;;;;;;1999.90;999.90;;;19.50;99.90;;;;;;5045802;28;20112;-72
2023/10/03 04:56:24;;;;;;;1999.90;999.90;;;19.50;99.90;;;;;;5038790;28;20104;-76
2023/10/03 04:58:50;;;;;;;1999.90;999.90;;;19.50;99.90;;;;;;5053604;28;20049;-72
2023/10/03 05:01:16;;;;;;;1999.90;999.90;;;19.50;99.90;;;;;;5053216;28;20488;-76
2023/10/03 05:03:41;;;;;;;1999.90;999.90;;;19.50;99.90;;;;;;5053653;28;20453;-73
2023/10/03 05:06:09;;;;;;;1999.90;999.90;;;19.50;99.90;;;;;;5052692;28;20104;-73
2023/10/03 05:08:37;;;;;;;1999.90;999.90;;;19.50;99.90;;;;;;5053489;28;20449;-76
2023/10/03 05:11:03;;;;;;;1999.90;999.90;;;19.50;99.90;;;;;;5053288;28;20047;-73
2023/10/03 05:13:28;;;;;;;1999.90;999.90;;;19.50;99.90;;;;;;5053090;28;20434;-73
2023/10/03 05:15:54;;;;;;;1999.90;999.90;;;19.60;99.90;;;;;;5051886;28;20137;-73
2023/10/03 05:18:20;;;;;;;1999.90;999.90;;;19.60;99.90;;;;;;5049581;28;20034;-73
2023/10/03 05:20:45;;;;;;;1999.90;999.90;;;19.70;99.90;;;;;;5042025;28;20052;-76
2023/10/03 05:23:14;;;;;;;1999.90;999.90;;;19.70;99.90;;;;;;5032837;28;20037;-76
2023/10/03 05:25:42;;;;;;;1999.90;999.90;;;19.80;99.90;;;;;;5032462;28;20050;-76
2023/10/03 05:28:11;;;;;;;1999.90;999.90;;;19.80;99.90;;;;;;5033198;28;20024;-76
2023/10/03 05:30:38;;;;;;;1999.90;999.90;;;19.90;99.90;;;;;;5037347;28;20127;-73
2023/10/03 05:33:07;;;;;;;1999.90;999.90;;;19.90;99.90;;;;;;5047322;28;20479;-72
2023/10/03 05:35:33;;;;;;;1999.90;999.90;;;19.90;99.90;;;;;;5051273;28;20044;-76
2023/10/03 05:37:59;;;;;;;1999.90;999.90;;;19.90;99.90;;;;;;5052545;28;20480;-76
2023/10/03 05:40:24;;;;;;;1999.90;999.90;;;19.90;99.90;;;;;;5041742;28;20032;-73
2023/10/03 05:42:50;;;;;;;1999.90;999.90;;;19.90;99.90;;;;;;5051820;28;20029;-73
2023/10/03 05:45:17;;;;;;;1999.90;999.90;;;19.90;99.90;;;;;;5048298;28;20484;-75
2023/10/03 05:47:45;;;;;;;1999.90;999.90;;;20.00;99.90;;;;;;5040424;28;20025;-76
2023/10/03 05:50:11;;;;;;;1999.90;999.90;;;19.90;99.90;;;;;;5049554;28;20108;-73
2023/10/03 05:52:37;;;;;;;1999.90;999.90;;;19.90;99.90;;;;;;5043521;28;20029;-76
2023/10/03 05:55:04;;;;;;;1999.90;999.90;;;19.90;99.90;;;;;;5047322;28;20029;-73
2023/10/03 05:57:30;;;;;;;1999.90;999.90;;;19.80;99.90;;;;;;5051387;28;20380;-75
2023/10/03 05:59:56;;;;;;;1999.90;999.90;;;19.90;99.90;;;;;;5050266;28;20035;-73
2023/10/03 06:02:22;;;;;;;1999.90;999.90;;;20.00;99.90;;;;;;5047970;28;20055;-75
2023/10/03 06:04:49;;;;;;;1999.90;999.90;;;20.00;99.90;;;;;;5050531;28;20104;-74
2023/10/03 06:07:15;;;;;;;1999.90;999.90;;;20.00;99.90;;;;;;5051023;28;20029;-73
2023/10/03 06:09:41;;;;;;;1999.90;999.90;;;20.00;99.90;;;;;;5048998;28;20060;-73
2023/10/03 06:12:08;;;;;;;1999.90;999.90;;;20.00;99.90;;;;;;5051437;28;20041;-73
2023/10/03 06:14:33;;;;;;;1999.90;999.90;;;20.00;99.90;;;;;;5051001;28;20025;-73
2023/10/03 06:16:59;;;;;;;1999.90;999.90;;;19.90;99.90;;;;;;5051184;28;20087;-73
2023/10/03 06:19:24;;;;;;;1999.90;999.90;;;19.90;99.90;;;;;;5050999;28;20037;-76
2023/10/03 06:21:50;;;;;;;1999.90;999.90;;;19.90;99.90;;;;;;5050280;28;20534;-76
2023/10/03 06:24:16;;;;;;;1999.90;999.90;;;19.90;99.90;;;;;;5050230;28;20035;-73
2023/10/03 06:26:44;;;;;;;1999.90;999.90;;;19.90;99.90;;;;;;5045450;28;20025;-73
2023/10/03 06:29:10;;;;;;;1999.90;999.90;;;19.90;99.90;;;;;;5050350;28;20021;-76
2023/10/03 06:31:36;;;;;;;1999.90;999.90;;;19.90;99.90;;;;;;5048919;28;20029;-73
2023/10/03 06:34:03;;;;;;;1999.90;999.90;;;19.80;99.90;;;;;;5051279;28;20033;-73
2023/10/03 06:36:28;;;;;;;1999.90;999.90;;;19.80;99.90;;;;;;5051021;28;20029;-72
2023/10/03 06:38:54;;;;;;;1999.90;999.90;;;19.80;99.90;;;;;;5054513;28;20102;-75
2023/10/03 06:41:20;;;;;;;1999.90;999.90;;;19.80;99.90;;;;;;5053266;28;20033;-76
2023/10/03 06:43:46;;;;;;;1999.90;999.90;;;19.90;99.90;;;;;;5053316;28;20603;-76
2023/10/03 06:46:11;;;;;;;1999.90;999.90;;;19.80;99.90;;;;;;5045005;28;20030;-76
2023/10/03 06:48:37;;;;;;;1999.90;999.90;;;19.90;99.90;;;;;;5043681;28;20060;-73
2023/10/03 06:51:05;;;;;;;1999.90;999.90;;;19.90;99.90;;;;;;5044348;28;20058;-73
2023/10/03 06:53:32;;;;;;;1999.90;999.90;;;19.80;99.90;;;;;;5050967;28;20395;-73
2023/10/03 06:55:57;;;;;;;1999.90;999.90;;;19.80;99.90;;;;;;5048449;28;20033;-76
2023/10/03 06:58:24;;;;;;;1999.90;999.90;;;19.80;99.90;;;;;;5046345;28;20057;-75
2023/10/03 07:00:56;;;;;;;1999.90;999.90;;;19.80;99.90;;;;;;5052858;28;20029;-74
2023/10/03 07:03:22;;;;;;;;;;;19.80;99.90;;;;;;5054272;28;20174;-73
2023/10/03 07:05:48;;;;;;;1999.90;999.90;;;19.80;99.90;;;;;;5051826;28;20444;-76
2023/10/03 07:08:14;;;;;;;1999.90;999.90;;;19.80;99.90;;;;;;5052215;28;20028;-76
2023/10/03 07:10:42;;;;;;;1999.90;999.90;;;19.80;99.90;;;;;;5052280;28;20036;-75
2023/10/03 07:13:10;;;;;;;1999.90;999.90;;;19.80;99.90;;;;;;5053407;28;20025;-73
2023/10/03 07:15:35;;;;;;;1999.90;999.90;;;19.80;99.90;;;;;;5049422;28;20032;-73
2023/10/03 07:18:03;;;;;;;1999.90;999.90;;;19.90;99.90;;;;;;5055172;28;20044;-75
2023/10/03 07:20:29;;;;;;;1999.90;999.90;;;20.00;99.90;;;;;;5052759;28;20020;-76
2023/10/03 07:22:55;;;;;;;1999.90;999.90;;;20.10;99.90;;;;;;5053624;28;20025;-77
2023/10/03 07:25:21;;;;;;;1999.90;999.90;;;20.10;99.90;;;;;;5053112;28;20049;-73
2023/10/03 07:27:48;;;;;;;1999.90;999.90;;;20.20;99.90;;;;;;5052231;28;20519;-74
2023/10/03 07:30:15;;;;;;;1999.90;999.90;;;20.30;99.90;;;;;;5053166;28;20025;-76
2023/10/03 07:32:41;;;;;;;1999.90;999.90;;;20.30;99.90;;;;;;5053574;28;20376;-74
2023/10/03 07:35:11;;;;;;;1999.90;999.90;;;20.40;99.90;;;;;;5053064;28;20063;-77
2023/10/03 07:37:39;;;;;;;1999.90;999.90;;;20.40;99.90;;;;;;5035097;28;20413;-75
2023/10/03 07:40:06;;;;;;;1999.90;999.90;;;20.50;99.90;;;;;;5052378;28;20448;-73
2023/10/03 07:42:32;;;;;;;1999.90;999.90;;;20.70;99.90;;;;;;5053122;28;20032;-76
2023/10/03 07:44:58;;;;;;;1999.90;999.90;;;20.50;99.90;;;;;;5052437;28;20033;-77
2023/10/03 07:47:23;;;;;;;1999.90;999.90;;;20.40;99.90;;;;;;5051612;28;20021;-78
2023/10/03 07:49:49;;;;;;;1999.90;999.90;;;20.40;99.90;;;;;;5053251;28;20044;-76
2023/10/03 07:52:19;;;;;;;1999.90;999.90;;;20.40;99.90;;;;;;5053187;28;20021;-76
2023/10/03 07:54:54;;;;;;;1999.90;999.90;;;20.40;99.90;;;;;;5051156;28;20400;-76
2023/10/03 07:57:23;;;;;;;1999.90;999.90;;;20.40;99.90;;;;;;5050407;28;20025;-79
2023/10/03 07:59:50;;;;;;;1999.90;999.90;;;20.50;99.90;;;;;;5052951;28;20021;-78
2023/10/03 08:02:16;;;;;;;1999.90;999.90;;;20.50;99.90;;;;;;5052392;28;20021;-78
2023/10/03 08:04:43;;;;;;;1999.90;999.90;;;20.40;99.90;;;;;;5050086;28;20412;-74
2023/10/03 08:07:14;;;;;;;1999.90;999.90;;;20.30;99.90;;;;;;5051473;28;20021;-73
2023/10/03 08:09:46;;;;;;;1999.90;999.90;;;20.10;99.90;;;;;;5052461;28;20053;-75
2023/10/03 08:12:12;;;;;;;1999.90;999.90;;;20.10;99.90;;;;;;5052171;28;20024;-75
2023/10/03 08:14:39;;;;;;;1999.90;999.90;;;20.10;99.90;;;;;;5052923;28;20032;-74
2023/10/03 08:17:05;;;;;;;1999.90;999.90;;;20.00;99.90;;;;;;5047271;28;20028;-73
2023/10/03 08:19:30;;;;;;;1999.90;999.90;;;19.90;99.90;;;;;;5051965;28;20090;-76
2023/10/03 08:21:58;;;;;;;1999.90;999.90;;;19.90;99.90;;;;;;5052296;28;20064;-74
2023/10/03 08:24:25;;;;;;;1999.90;999.90;;;19.90;99.90;;;;;;5052479;28;20025;-74
2023/10/03 08:26:58;;;;;;;1999.90;999.90;;;20.00;99.90;;;;;;5049548;28;20092;-73
2023/10/03 08:29:25;;;;;;;1999.90;999.90;;;20.00;99.90;;;;;;5052176;28;20029;-74
2023/10/03 08:31:57;;;;;;;1999.90;999.90;;;20.00;99.90;;;;;;5052023;28;20044;-73
2023/10/03 08:34:24;;;;;;;1999.90;999.90;;;20.00;99.90;;;;;;5052147;28;20036;-74
2023/10/03 08:36:58;;;;;;;1999.90;999.90;;;20.10;99.90;;;;;;5052003;28;20029;-74
2023/10/03 08:39:25;;;;;;;1999.90;999.90;;;20.40;99.90;;;;;;5051788;28;20120;-74
2023/10/03 08:42:13;;;;;;;1999.90;999.90;;;20.90;99.90;;;;;;5052138;28;20099;-73
2023/10/03 08:44:51;;;;;;;1999.90;999.90;;;21.40;99.90;;;;;;5052239;28;20091;-74
2023/10/03 08:47:28;;;;;;;1999.90;999.90;;;21.70;99.90;;;;;;5052253;28;20028;-75
2023/10/03 08:49:58;;;;;;;1999.90;999.90;;;21.70;99.90;;;;;;5051735;28;20121;-74
2023/10/03 08:52:39;;;;;;;1999.90;999.90;;;21.30;99.90;;;;;;5051446;28;20017;-75
2023/10/03 08:55:09;;;;;;;1999.90;999.90;;;21.30;99.90;;;;;;5051685;28;20025;-75
2023/10/03 08:57:35;;;;;;;1999.90;999.90;;;21.40;99.90;;;;;;5051015;28;20040;-74
2023/10/03 09:00:08;;;;;;;1999.90;999.90;;;21.50;99.90;;;;;;5040399;28;20037;-74
2023/10/03 09:02:45;;;;;;;;;;;21.80;99.90;;;;;;5051776;28;20112;-75
2023/10/03 09:05:19;;;;;;;1999.90;999.90;;;21.80;99.90;;;;;;5050934;28;19920;-75
2023/10/03 09:07:46;;;;;;;1999.90;999.90;;;21.80;99.90;;;;;;5049817;28;20107;-75
2023/10/03 09:10:24;;;;;;;1999.90;999.90;;;21.60;99.90;;;;;;5050616;28;20046;-72
2023/10/03 09:13:04;;;;;;;1999.90;999.90;;;21.50;99.90;;;;;;5050720;28;20495;-72
2023/10/03 09:15:37;;;;;;;1999.90;999.90;;;21.30;99.90;;;;;;5050537;28;20029;-72
2023/10/03 09:18:10;;;;;;;1999.90;999.90;;;21.20;99.90;;;;;;5051203;28;20087;-75
2023/10/03 09:20:37;;;;;;;1999.90;999.90;;;21.30;99.90;;;;;;5050824;28;20032;-74
2023/10/03 09:23:07;;;;;;;1999.90;999.90;;;21.50;99.90;;;;;;5047422;28;20053;-73
2023/10/03 09:25:35;;;;;;;1999.90;999.90;;;21.70;99.90;;;;;;5030927;28;20049;-72
2023/10/03 09:28:12;;;;;;;1999.90;999.90;;;21.80;99.90;;;;;;5048604;28;20052;-74
2023/10/03 09:30:38;;;;;;;1999.90;999.90;;;21.70;99.90;;;;;;5050100;28;20017;-73
2023/10/03 09:33:11;;;;;;;1999.90;999.90;;;21.70;99.90;;;;;;5050398;28;20037;-73
2023/10/03 09:35:40;;;;;;;1999.90;999.90;;;21.70;99.90;;;;;;5044462;28;20154;-72
2023/10/03 09:38:08;;;;;;;1999.90;999.90;;;21.70;99.90;;;;;;5050938;28;20037;-72
2023/10/03 09:40:49;;;;;;;1999.90;999.90;;;22.30;99.90;;;;;;5050009;28;20025;-76
2023/10/03 09:43:19;;;;;;;1999.90;999.90;;;22.40;99.90;;;;;;5050782;28;20029;-75
2023/10/03 09:45:55;;;;;;;1999.90;999.90;;;22.20;99.90;;;;;;5050515;28;20036;-76
2023/10/03 09:48:25;;;;;;;1999.90;999.90;;;22.20;99.90;;;;;;5046074;28;20029;-74
2023/10/03 09:50:54;;;;;;;1999.90;999.90;;;22.10;99.90;;;;;;5050127;28;20404;-74
2023/10/03 09:53:28;;;;;;;1999.90;999.90;;;21.90;99.90;;;;;;5049292;28;20033;-74
2023/10/03 09:55:56;;;;;;;1999.90;999.90;;;21.90;99.90;;;;;;5050469;28;20499;-73
2023/10/03 09:58:31;;;;;;;1999.90;999.90;;;22.10;99.90;;;;;;5050047;28;20025;-76
2023/10/03 10:00:57;;;;;;;1999.90;999.90;;;22.10;99.90;;;;;;5043969;28;20383;-74
2023/10/03 10:03:38;;;;;;;1999.90;999.90;;;22.40;99.90;;;;;;5047657;28;20535;-73
2023/10/03 10:06:37;;;;;;;1999.90;999.90;;;22.60;99.90;;;;;;5050071;28;20032;-77
2023/10/03 10:09:23;;;;;;;1999.90;999.90;;;22.60;99.90;;;;;;5036794;28;20029;-77
2023/10/03 10:12:10;;;;;;;1999.90;999.90;;;22.50;99.90;;;;;;5046774;28;20044;-77
2023/10/03 10:15:00;;;;;;;1999.90;999.90;;;22.50;99.90;;;;;;5054128;28;20080;-73
2023/10/03 10:17:51;;;;;;;1999.90;999.90;;;22.20;99.90;;;;;;5051643;28;20086;-73
2023/10/03 10:20:34;;;;;;;1999.90;999.90;;;22.30;99.90;;;;;;5054005;28;20407;-77
2023/10/03 10:23:12;;;;;;;1999.90;999.90;;;22.70;99.90;;;;;;5049415;28;20041;-77
2023/10/03 10:25:42;;;;;;;1999.90;999.90;;;22.90;99.90;;;;;;5050935;28;20041;-74
2023/10/03 10:28:32;;;;;;;1999.90;999.90;;;22.80;99.90;;;;;;5054459;28;20036;-74
2023/10/03 10:31:24;;;;;;;1999.90;999.90;;;22.50;99.90;;;;;;5054214;28;20503;-74
2023/10/03 10:34:11;;;;;;;1999.90;999.90;;;22.20;99.90;;;;;;5055105;28;20025;-77
2023/10/03 10:36:56;;;;;;;1999.90;999.90;;;22.40;99.90;;;;;;5053692;28;20033;-77
2023/10/03 10:39:25;;;;;;;1999.90;999.90;;;22.30;99.90;;;;;;5054750;28;20033;-77
2023/10/03 10:42:10;;;;;;;1999.90;999.90;;;22.20;99.90;;;;;;5049786;28;20021;-73
2023/10/03 10:44:35;;;;;;;1999.90;999.90;;;22.50;99.90;;;;;;5043603;28;20071;-77
2023/10/03 10:47:05;;;;;;;1999.90;999.90;;;22.60;99.90;;;;;;5054748;28;20434;-77
2023/10/03 10:49:32;;;;;;;1999.90;999.90;;;22.90;99.90;;;;;;5054830;28;20032;-77
2023/10/03 10:52:09;;;;;;;1999.90;999.90;;;22.70;99.90;;;;;;5048053;28;20045;-77
2023/10/03 10:54:39;;;;;;;1999.90;999.90;;;22.90;99.90;;;;;;5049117;28;20399;-73
2023/10/03 10:57:06;;;;;;;1999.90;999.90;;;22.80;99.90;;;;;;5052645;28;20563;-73
2023/10/03 10:59:35;;;;;;;1999.90;999.90;;;22.50;99.90;;;;;;5052889;28;20041;-77
2023/10/03 11:02:03;;;;;;;1999.90;999.90;;;22.80;99.90;;;;;;5052458;28;20070;-76
2023/10/03 11:04:33;;;;;;;1999.90;999.90;;;22.80;99.90;;;;;;5052540;28;20515;-77
2023/10/03 11:06:59;;;;;;;1999.90;999.90;;;22.60;99.90;;;;;;5048239;28;20031;-73
2023/10/03 11:09:25;;;;;;;1999.90;999.90;;;22.30;99.90;;;;;;5047753;28;20025;-73
2023/10/03 11:11:51;;;;;;;1999.90;999.90;;;22.50;99.90;;;;;;5050863;28;20053;-77
2023/10/03 11:14:31;;;;;;;1999.90;999.90;;;22.80;99.90;;;;;;5049475;28;20522;-74
2023/10/03 11:16:58;;;;;;;1999.90;999.90;;;22.80;99.90;;;;;;5047582;28;20111;-77
2023/10/03 11:19:24;;;;;;;1999.90;999.90;;;22.50;99.90;;;;;;5048386;28;20032;-74
2023/10/03 11:21:51;;;;;;;1999.90;999.90;;;22.10;99.90;;;;;;5049971;28;20051;-73
2023/10/03 11:24:19;;;;;;;1999.90;999.90;;;21.60;99.90;;;;;;5050149;28;20327;-77
2023/10/03 11:26:57;;;;;;;1999.90;999.90;;;21.60;99.90;;;;;;5048511;28;20032;-77
2023/10/03 11:29:48;;;;;;;1999.90;999.90;;;21.80;99.90;;;;;;5048131;28;20036;-77
2023/10/03 11:32:29;;;;;;;1999.90;999.90;;;22.10;99.90;;;;;;5048927;28;20025;-76
2023/10/03 11:34:57;;;;;;;1999.90;999.90;;;22.20;99.90;;;;;;5047939;28;20028;-74
2023/10/03 11:37:36;;;;;;;1999.90;999.90;;;22.20;99.90;;;;;;5052444;28;20163;-77
2023/10/03 11:40:09;;;;;;;1999.90;999.90;;;22.10;99.90;;;;;;5051000;28;20396;-76
2023/10/03 11:42:44;;;;;;;1999.90;999.90;;;22.30;99.90;;;;;;5052392;28;20068;-73
2023/10/03 11:45:14;;;;;;;1999.90;999.90;;;22.50;99.90;;;;;;5051620;28;20037;-74
2023/10/03 11:47:40;;;;;;;1999.90;999.90;;;22.50;99.90;;;;;;5051743;28;20024;-74
2023/10/03 11:50:06;;;;;;;1999.90;999.90;;;22.50;99.90;;;;;;5051379;28;20037;-76
2023/10/03 11:52:32;;;;;;;1999.90;999.90;;;22.40;99.90;;;;;;5047735;28;20049;-76
2023/10/03 11:54:58;;;;;;;1999.90;999.90;;;22.40;99.90;;;;;;5050341;28;20055;-77
2023/10/03 11:57:24;;;;;;;1999.90;999.90;;;22.60;99.90;;;;;;5046364;28;20484;-77
2023/10/03 11:59:50;;;;;;;1999.90;999.90;;;22.80;99.90;;;;;;5048923;28;20085;-75
2023/10/03 12:02:17;;;;;;;1999.90;999.90;;;22.50;99.90;;;;;;5049208;28;20029;-74
2023/10/03 12:04:42;;;;;;;1999.90;999.90;;;22.40;99.90;;;;;;5048661;28;20061;-78
2023/10/03 12:07:08;;;;;;;1999.90;999.90;;;22.00;99.90;;;;;;5051149;28;20075;-77
2023/10/03 12:09:33;;;;;;;1999.90;999.90;;;21.80;99.90;;;;;;5052226;28;20037;-77
2023/10/03 12:12:00;;;;;;;1999.90;999.90;;;21.60;99.90;;;;;;5050816;28;20107;-74
2023/10/03 12:14:28;;;;;;;1999.90;999.90;;;21.80;99.90;;;;;;5037943;28;20070;-77
2023/10/03 12:16:54;;;;;;;1999.90;999.90;;;21.90;99.90;;;;;;5050441;28;20029;-77